createdAt,value
2024-01-15T00:02:02.957Z,0.93
2024-01-15T00:04:30.009Z,0.84
2024-01-15T00:06:56.679Z,0.73
2024-01-15T00:09:23.227Z,0.72
2024-01-15T00:11:49.880Z,0.72
2024-01-15T00:14:20.960Z,0.74
2024-01-15T00:16:50.026Z,0.78
2024-01-15T00:19:16.884Z,0.86
2024-01-15T00:21:43.776Z,0.97
2024-01-15T00:24:10.468Z,0.98
2024-01-15T00:26:38.139Z,0.97
2024-01-15T00:29:04.684Z,0.93
2024-01-15T00:31:31.486Z,0.84
2024-01-15T00:33:58.981Z,0.83
2024-01-15T00:36:26.012Z,0.87
2024-01-15T00:38:52.837Z,0.85
2024-01-15T00:41:22.160Z,0.88
2024-01-15T00:43:50.325Z,0.88
2024-01-15T00:46:16.854Z,0.87
2024-01-15T00:48:43.573Z,0.89
2024-01-15T00:51:10.262Z,0.91
2024-01-15T00:53:36.884Z,0.95
2024-01-15T00:56:04.331Z,0.99
2024-01-15T00:58:30.864Z,0.99
2024-01-15T01:00:57.550Z,0.92
2024-01-15T01:03:24.257Z,0.95
2024-01-15T01:05:53.605Z,0.89
2024-01-15T01:08:20.263Z,0.98
2024-01-15T01:10:47.534Z,1.11
2024-01-15T01:13:14.062Z,1.23
2024-01-15T01:15:40.540Z,1.23
2024-01-15T01:18:07.255Z,1.24
2024-01-15T01:20:34.092Z,1.32
2024-01-15T01:23:00.899Z,1.36
2024-01-15T01:25:28.106Z,1.33
2024-01-15T01:27:54.616Z,1.21
2024-01-15T01:30:21.260Z,1.12
2024-01-15T01:32:48.005Z,1.14
2024-01-15T01:35:15.173Z,1.24
2024-01-15T01:37:41.658Z,1.14
2024-01-15T01:40:08.934Z,1.05
2024-01-15T01:42:35.419Z,1.01
2024-01-15T01:45:01.995Z,1.03
2024-01-15T01:47:28.746Z,1.07
2024-01-15T01:49:55.712Z,1.07
2024-01-15T01:52:22.624Z,1.08
2024-01-15T01:54:49.493Z,1.04
2024-01-15T01:57:16.442Z,1.04
2024-01-15T01:59:43.238Z,1.05
2024-01-15T02:02:09.692Z,1.05
2024-01-15T02:04:38.005Z,1.01
2024-01-15T02:07:05.409Z,1.06
2024-01-15T02:09:33.178Z,1.07
2024-01-15T02:12:00.064Z,1.10
2024-01-15T02:14:26.718Z,1.09
2024-01-15T02:16:53.278Z,1.03
2024-01-15T02:19:19.968Z,0.98
2024-01-15T02:21:46.869Z,0.94
2024-01-15T02:24:13.953Z,0.92
2024-01-15T02:26:40.781Z,1.00
2024-01-15T02:29:09.754Z,1.09
2024-01-15T02:31:37.659Z,1.16
2024-01-15T02:34:04.446Z,1.23
2024-01-15T02:36:31.458Z,1.28
2024-01-15T02:38:57.974Z,1.30
2024-01-15T02:41:24.571Z,1.24
2024-01-15T02:43:51.184Z,1.16
2024-01-15T02:46:17.687Z,1.18
2024-01-15T02:48:44.388Z,1.10
2024-01-15T02:51:11.849Z,1.16
2024-01-15T02:53:38.393Z,1.23
2024-01-15T02:56:05.755Z,1.28
2024-01-15T02:58:32.262Z,1.23
2024-01-15T03:00:59.274Z,1.25
2024-01-15T03:03:26.102Z,1.23
2024-01-15T03:05:52.852Z,1.25
2024-01-15T03:08:19.538Z,1.24
2024-01-15T03:10:46.041Z,1.17
2024-01-15T03:13:12.512Z,1.12
2024-01-15T03:15:39.114Z,1.07
2024-01-15T03:18:06.944Z,1.09
2024-01-15T03:20:33.641Z,1.12
2024-01-15T03:23:00.235Z,1.19
2024-01-15T03:25:26.693Z,1.10
2024-01-15T03:27:53.316Z,1.06
2024-01-15T03:30:19.963Z,1.01
2024-01-15T03:32:48.453Z,0.97
2024-01-15T03:35:15.471Z,0.89
2024-01-15T03:37:42.048Z,0.78
2024-01-15T03:40:09.195Z,0.71
2024-01-15T03:42:35.965Z,0.80
2024-01-15T03:45:02.520Z,0.80
2024-01-15T03:47:29.148Z,0.80
2024-01-15T03:49:55.699Z,0.83
2024-01-15T03:52:22.206Z,0.87
2024-01-15T03:54:48.911Z,0.90
2024-01-15T03:57:15.742Z,0.98
2024-01-15T03:59:42.896Z,1.03
2024-01-15T04:02:09.389Z,1.17
2024-01-15T04:04:36.507Z,1.23
2024-01-15T04:07:03.208Z,1.29
2024-01-15T04:09:29.773Z,1.32
2024-01-15T04:11:56.305Z,1.37
2024-01-15T04:14:22.955Z,1.38
2024-01-15T04:16:49.389Z,1.48
2024-01-15T04:19:16.076Z,1.42
2024-01-15T04:21:42.633Z,1.29
2024-01-15T04:24:09.310Z,1.28
2024-01-15T04:26:35.870Z,1.41
2024-01-15T04:29:02.401Z,1.33
2024-01-15T04:31:29.067Z,1.36
2024-01-15T04:33:56.308Z,1.39
2024-01-15T04:36:23.005Z,1.34
2024-01-15T04:38:49.806Z,1.16
2024-01-15T04:41:17.680Z,1.12
2024-01-15T04:43:44.325Z,1.27
2024-01-15T04:46:10.938Z,1.23
2024-01-15T04:48:37.730Z,1.32
2024-01-15T04:51:10.122Z,1.24
2024-01-15T04:53:36.937Z,1.27
2024-01-15T04:56:03.614Z,1.19
2024-01-15T04:58:30.250Z,1.17
2024-01-15T05:00:57.142Z,1.22
2024-01-15T05:03:23.884Z,1.18
2024-01-15T05:05:50.609Z,1.21
2024-01-15T05:08:17.121Z,1.18
2024-01-15T05:10:43.876Z,1.15
2024-01-15T05:13:10.367Z,1.23
2024-01-15T05:15:36.935Z,1.28
2024-01-15T05:18:03.678Z,1.32
2024-01-15T05:20:30.431Z,1.36
2024-01-15T05:22:57.072Z,1.40
2024-01-15T05:25:23.922Z,1.54
2024-01-15T05:27:50.464Z,1.55
2024-01-15T05:30:17.860Z,1.55
2024-01-15T05:32:44.601Z,1.55
2024-01-15T05:35:11.411Z,1.57
2024-01-15T05:37:37.925Z,1.55
2024-01-15T05:40:05.810Z,1.51
2024-01-15T05:42:33.153Z,1.56
2024-01-15T05:45:00.761Z,1.53
2024-01-15T05:47:27.356Z,1.53
2024-01-15T05:49:54.093Z,1.47
2024-01-15T05:52:22.080Z,1.44
2024-01-15T05:54:49.100Z,1.47
2024-01-15T05:57:15.875Z,1.53
2024-01-15T05:59:42.396Z,1.50
2024-01-15T06:02:08.908Z,1.46
2024-01-15T06:04:35.454Z,1.41
2024-01-15T06:07:02.343Z,1.40
2024-01-15T06:09:29.453Z,1.41
2024-01-15T06:11:56.396Z,1.47
2024-01-15T06:14:22.896Z,1.41
2024-01-15T06:16:50.343Z,1.37
2024-01-15T06:19:16.954Z,1.35
2024-01-15T06:21:43.572Z,1.41
2024-01-15T06:24:11.166Z,1.49
2024-01-15T06:26:38.260Z,1.56
2024-01-15T06:29:05.084Z,1.60
2024-01-15T06:31:31.725Z,1.59
2024-01-15T06:33:58.585Z,1.60
2024-01-15T06:36:25.356Z,1.62
2024-01-15T06:38:51.847Z,1.58
2024-01-15T06:41:18.428Z,1.53
2024-01-15T06:43:44.981Z,1.61
2024-01-15T06:46:11.734Z,1.58
2024-01-15T06:48:38.481Z,1.57
2024-01-15T06:51:05.316Z,1.58
2024-01-15T06:53:31.900Z,1.48
2024-01-15T06:55:58.508Z,1.48
2024-01-15T06:58:25.123Z,1.50
2024-01-15T07:00:52.054Z,1.46
2024-01-15T07:03:18.757Z,1.47
2024-01-15T07:05:45.313Z,1.56
2024-01-15T07:08:11.971Z,1.58
2024-01-15T07:10:38.452Z,1.63
2024-01-15T07:13:06.652Z,1.73
2024-01-15T07:15:33.178Z,1.73
2024-01-15T07:17:59.821Z,1.77
2024-01-15T07:20:26.331Z,1.83
2024-01-15T07:22:53.447Z,1.86
2024-01-15T07:25:19.926Z,1.84
2024-01-15T07:27:47.530Z,1.79
2024-01-15T07:30:14.938Z,1.74
2024-01-15T07:32:42.031Z,1.66
2024-01-15T07:35:08.946Z,1.70
2024-01-15T07:37:35.542Z,1.66
2024-01-15T07:40:02.306Z,1.60
2024-01-15T07:42:28.968Z,1.57
2024-01-15T07:44:55.601Z,1.59
2024-01-15T07:47:22.168Z,1.63
2024-01-15T07:49:48.964Z,1.57
2024-01-15T07:52:15.550Z,1.58
2024-01-15T07:54:42.218Z,1.57
2024-01-15T07:57:08.812Z,1.58
2024-01-15T07:59:36.264Z,1.55
2024-01-15T08:02:03.154Z,1.54
2024-01-15T08:04:30.068Z,1.55
2024-01-15T08:06:57.996Z,1.57
2024-01-15T08:09:25.091Z,1.55
2024-01-15T08:11:51.657Z,1.54
2024-01-15T08:14:19.089Z,1.55
2024-01-15T08:16:45.634Z,1.53
2024-01-15T08:19:12.798Z,1.58
2024-01-15T08:21:39.722Z,1.58
2024-01-15T08:24:07.451Z,1.56
2024-01-15T08:26:34.002Z,1.47
2024-01-15T08:29:00.535Z,1.42
2024-01-15T08:31:27.502Z,1.39
2024-01-15T08:33:54.611Z,1.41
2024-01-15T08:36:21.389Z,1.29
2024-01-15T08:38:47.865Z,1.29
2024-01-15T08:41:15.552Z,1.30
2024-01-15T08:43:42.048Z,1.32
2024-01-15T08:46:08.842Z,1.32
2024-01-15T08:48:35.606Z,1.34
2024-01-15T08:51:02.403Z,1.38
2024-01-15T08:53:29.084Z,1.32
2024-01-15T08:55:55.684Z,1.32
2024-01-15T08:58:24.035Z,1.31
2024-01-15T09:00:52.737Z,1.34
2024-01-15T09:03:19.498Z,1.37
2024-01-15T09:05:46.337Z,1.42
2024-01-15T09:08:12.862Z,1.45
2024-01-15T09:10:39.890Z,1.52
2024-01-15T09:13:06.422Z,1.52
2024-01-15T09:15:33.844Z,1.48
2024-01-15T09:18:03.122Z,1.42
2024-01-15T09:20:31.227Z,1.35
2024-01-15T09:22:57.906Z,1.34
2024-01-15T09:25:24.881Z,1.25
2024-01-15T09:27:51.912Z,1.23
2024-01-15T09:30:18.587Z,1.21
2024-01-15T09:32:45.169Z,1.21
2024-01-15T09:35:11.806Z,1.29
2024-01-15T09:37:46.957Z,1.41
2024-01-15T09:40:16.155Z,1.44
2024-01-15T09:42:43.933Z,1.56
2024-01-15T09:45:11.238Z,1.66
2024-01-15T09:47:41.510Z,1.70
2024-01-15T09:50:10.361Z,1.79
2024-01-15T09:52:37.705Z,1.83
2024-01-15T09:55:06.418Z,1.75
2024-01-15T09:57:33.998Z,1.71
2024-01-15T10:00:05.453Z,1.47
2024-01-15T10:02:32.368Z,1.37
2024-01-15T10:04:59.062Z,1.29
2024-01-15T10:07:26.639Z,1.19
2024-01-15T10:09:55.124Z,1.14
2024-01-15T10:12:25.386Z,1.17
2024-01-15T10:14:52.069Z,1.21
2024-01-15T10:17:18.791Z,1.22
2024-01-15T10:19:50.318Z,1.33
2024-01-15T10:22:18.902Z,1.31
2024-01-15T10:24:46.590Z,1.27
2024-01-15T10:27:13.496Z,1.15
2024-01-15T10:29:43.149Z,1.04
2024-01-15T10:32:10.732Z,1.00
2024-01-15T10:34:42.899Z,1.01
2024-01-15T10:37:10.939Z,1.05
2024-01-15T10:39:39.227Z,1.11
2024-01-15T10:42:07.487Z,1.10
2024-01-15T10:44:34.528Z,1.00
2024-01-15T10:47:01.725Z,0.84
2024-01-15T10:49:32.683Z,0.71
2024-01-15T10:52:02.216Z,0.64
2024-01-15T10:54:29.277Z,0.55
2024-01-15T10:56:57.665Z,0.51
2024-01-15T10:59:24.741Z,0.46
2024-01-15T11:01:57.454Z,0.40
2024-01-15T11:04:25.353Z,0.43
2024-01-15T11:06:56.175Z,0.46
2024-01-15T11:09:24.740Z,0.47
2024-01-15T11:12:07.559Z,0.51
2024-01-15T11:14:41.679Z,0.49
2024-01-15T11:17:08.764Z,0.51
2024-01-15T11:19:49.290Z,0.49
2024-01-15T11:22:31.080Z,0.51
2024-01-15T11:24:58.923Z,0.58
2024-01-15T11:27:42.427Z,0.60
2024-01-15T11:30:11.770Z,0.68
2024-01-15T11:32:42.284Z,0.69
2024-01-15T11:35:10.402Z,0.54
2024-01-15T11:37:52.378Z,0.42
2024-01-15T11:40:20.573Z,0.38
2024-01-15T11:42:48.476Z,0.39
2024-01-15T11:45:20.449Z,0.42
2024-01-15T11:48:23.151Z,0.51
2024-01-15T11:50:51.547Z,0.58
2024-01-15T11:53:45.285Z,0.62
2024-01-15T11:56:24.396Z,0.59
2024-01-15T11:58:51.990Z,0.57
2024-01-15T12:01:20.033Z,0.53
2024-01-15T12:03:48.505Z,0.52
2024-01-15T12:06:15.325Z,0.50
2024-01-15T12:08:41.905Z,0.48
2024-01-15T12:11:14.948Z,0.49
2024-01-15T12:13:41.552Z,0.54
2024-01-15T12:16:08.484Z,0.55
2024-01-15T12:18:35.207Z,0.62
2024-01-15T12:21:01.815Z,0.70
2024-01-15T12:23:28.634Z,0.71
2024-01-15T12:25:55.536Z,0.79
2024-01-15T12:28:22.636Z,0.78
2024-01-15T12:30:52.314Z,0.72
2024-01-15T12:33:21.083Z,0.71
2024-01-15T12:35:48.070Z,0.67
2024-01-15T12:38:14.567Z,0.61
2024-01-15T12:40:41.165Z,0.60
2024-01-15T12:43:08.359Z,0.66
2024-01-15T12:45:36.745Z,0.58
2024-01-15T12:48:04.673Z,0.52
2024-01-15T12:50:34.182Z,0.52
2024-01-15T12:53:00.857Z,0.54
2024-01-15T12:55:27.624Z,0.57
2024-01-15T12:57:56.001Z,0.62
2024-01-15T13:00:22.926Z,0.66
2024-01-15T13:02:50.817Z,0.57
2024-01-15T13:05:17.754Z,0.58
2024-01-15T13:07:45.122Z,0.59
2024-01-15T13:10:12.584Z,0.57
2024-01-15T13:12:42.072Z,0.51
2024-01-15T13:15:14.062Z,0.54
2024-01-15T13:17:42.728Z,0.58
2024-01-15T13:20:10.497Z,0.69
2024-01-15T13:22:40.086Z,0.73
2024-01-15T13:25:08.705Z,0.79
2024-01-15T13:27:36.777Z,0.76
2024-01-15T13:30:04.491Z,0.77
2024-01-15T13:32:31.408Z,0.89
2024-01-15T13:34:58.553Z,0.90
2024-01-15T13:37:28.686Z,0.91
2024-01-15T13:39:55.737Z,0.83
2024-01-15T13:42:25.386Z,0.87
2024-01-15T13:44:52.387Z,0.88
2024-01-15T13:47:19.361Z,0.98
2024-01-15T13:49:45.881Z,0.92
2024-01-15T13:52:13.893Z,0.91
2024-01-15T13:54:48.445Z,0.89
2024-01-15T13:57:18.288Z,1.06
2024-01-15T13:59:45.275Z,1.04
2024-01-15T14:02:11.953Z,1.02
2024-01-15T14:04:39.720Z,1.06
2024-01-15T14:07:06.366Z,1.07
2024-01-15T14:09:33.494Z,0.95
2024-01-15T14:12:00.371Z,1.02
2024-01-15T14:14:27.167Z,0.97
2024-01-15T14:16:53.627Z,1.02
2024-01-15T14:19:21.885Z,0.97
2024-01-15T14:21:48.863Z,1.00
2024-01-15T14:24:15.748Z,0.97
2024-01-15T14:26:42.672Z,0.93
2024-01-15T14:29:09.286Z,1.03
2024-01-15T14:31:36.014Z,0.95
2024-01-15T14:34:04.293Z,0.93
2024-01-15T14:36:31.269Z,0.93
2024-01-15T14:38:58.012Z,0.89
2024-01-15T14:41:24.912Z,0.81
2024-01-15T14:43:51.503Z,0.76
2024-01-15T14:46:18.014Z,0.82
2024-01-15T14:48:46.270Z,0.64
2024-01-15T14:51:13.423Z,0.58
2024-01-15T14:53:40.017Z,0.65
2024-01-15T14:56:06.757Z,0.58
2024-01-15T14:58:33.229Z,0.46
2024-01-15T15:00:59.897Z,0.33
2024-01-15T15:03:26.724Z,0.29
2024-01-15T15:05:53.341Z,0.29
2024-01-15T15:08:19.839Z,0.17
2024-01-15T15:10:46.883Z,0.15
2024-01-15T15:13:13.708Z,0.15
2024-01-15T15:15:40.345Z,0.16
2024-01-15T15:18:06.890Z,0.18
2024-01-15T15:20:33.624Z,0.22
2024-01-15T15:23:00.516Z,0.17
2024-01-15T15:25:27.704Z,0.08
2024-01-15T15:27:54.340Z,0.08
2024-01-15T15:30:20.982Z,0.00
2024-01-15T15:32:47.489Z,-0.01
2024-01-15T15:35:14.338Z,0.03
2024-01-15T15:37:41.102Z,-0.02
2024-01-15T15:40:10.313Z,-0.01
2024-01-15T15:42:37.341Z,0.07
2024-01-15T15:45:04.945Z,0.08
2024-01-15T15:47:32.339Z,0.12
2024-01-15T15:49:59.686Z,0.07
2024-01-15T15:52:26.574Z,0.03
2024-01-15T15:54:53.253Z,-0.03
2024-01-15T15:57:21.280Z,-0.02
2024-01-15T15:59:48.020Z,-0.05
2024-01-15T16:02:14.551Z,-0.09
2024-01-15T16:04:41.569Z,-0.17
2024-01-15T16:07:10.947Z,-0.24
2024-01-15T16:09:38.155Z,-0.25
2024-01-15T16:12:05.149Z,-0.31
2024-01-15T16:14:31.634Z,-0.40
2024-01-15T16:23:13.616Z,-0.45
2024-01-15T16:23:26.885Z,-0.53
2024-01-15T16:23:42.281Z,-0.58
2024-01-15T16:25:19.391Z,-0.67
2024-01-15T16:27:46.347Z,-0.70
2024-01-15T16:30:21.201Z,-0.73
2024-01-15T16:32:56.266Z,-0.67
2024-01-15T16:35:23.263Z,-0.62
2024-01-15T16:37:50.621Z,-0.55
2024-01-15T16:40:17.218Z,-0.57
2024-01-15T16:42:43.708Z,-0.53
2024-01-15T16:45:16.816Z,-0.45
2024-01-15T16:47:43.330Z,-0.40
2024-01-15T16:50:10.261Z,-0.42
2024-01-15T16:52:36.714Z,-0.36
2024-01-15T16:55:04.013Z,-0.33
2024-01-15T16:57:30.477Z,-0.22
2024-01-15T16:59:57.746Z,-0.19
2024-01-15T17:02:25.457Z,-0.19
2024-01-15T17:04:52.053Z,-0.18
2024-01-15T17:07:18.617Z,-0.12
2024-01-15T17:09:45.100Z,-0.16
2024-01-15T17:12:11.612Z,-0.14
2024-01-15T17:14:38.134Z,-0.13
2024-01-15T17:17:04.898Z,-0.11
2024-01-15T17:19:31.387Z,-0.05
2024-01-15T17:21:57.875Z,-0.02
2024-01-15T17:24:24.367Z,-0.02
2024-01-15T17:26:50.863Z,-0.02
2024-01-15T17:29:17.706Z,-0.09
2024-01-15T17:31:46.492Z,-0.20
2024-01-15T17:34:13.041Z,-0.31
2024-01-15T17:36:40.372Z,-0.38
2024-01-15T17:39:07.157Z,-0.41
2024-01-15T17:41:34.399Z,-0.43
2024-01-15T17:44:02.136Z,-0.42
2024-01-15T17:46:30.133Z,-0.46
2024-01-15T17:49:03.492Z,-0.46
2024-01-15T17:51:34.232Z,-0.45
2024-01-15T17:54:01.500Z,-0.41
2024-01-15T17:56:28.351Z,-0.39
2024-01-15T17:58:55.895Z,-0.43
2024-01-15T18:01:23.110Z,-0.43
2024-01-15T18:03:49.726Z,-0.45
2024-01-15T18:06:17.012Z,-0.45
2024-01-15T18:08:43.808Z,-0.45
2024-01-15T18:11:17.294Z,-0.39
2024-01-15T18:13:44.056Z,-0.39
2024-01-15T18:16:10.565Z,-0.37
2024-01-15T18:18:37.123Z,-0.40
2024-01-15T18:21:04.781Z,-0.40
2024-01-15T18:23:31.644Z,-0.40
2024-01-15T18:25:58.169Z,-0.42
2024-01-15T18:28:24.741Z,-0.45
2024-01-15T18:30:51.548Z,-0.49
2024-01-15T18:33:18.203Z,-0.54
2024-01-15T18:35:44.711Z,-0.56
2024-01-15T18:38:11.348Z,-0.57
2024-01-15T18:40:38.116Z,-0.51
2024-01-15T18:43:04.875Z,-0.52
2024-01-15T18:45:31.391Z,-0.52
2024-01-15T18:47:57.939Z,-0.58
2024-01-15T18:50:25.160Z,-0.60
2024-01-15T18:52:54.039Z,-0.58
2024-01-15T18:55:22.232Z,-0.63
2024-01-15T18:57:51.952Z,-0.64
2024-01-15T19:00:20.240Z,-0.58
2024-01-15T19:02:46.868Z,-0.52
2024-01-15T19:05:14.371Z,-0.54
2024-01-15T19:07:40.861Z,-0.56
2024-01-15T19:10:08.225Z,-0.54
2024-01-15T19:12:34.776Z,-0.45
2024-01-15T19:15:01.535Z,-0.41
2024-01-15T19:17:28.056Z,-0.34
2024-01-15T19:19:55.241Z,-0.32
2024-01-15T19:22:21.759Z,-0.31
2024-01-15T19:24:48.344Z,-0.25
2024-01-15T19:27:14.894Z,-0.22
2024-01-15T19:29:41.469Z,-0.21
2024-01-15T19:32:08.042Z,-0.18
2024-01-15T19:34:34.910Z,-0.16
2024-01-15T19:37:02.127Z,-0.13
2024-01-15T19:39:29.366Z,-0.09
2024-01-15T19:41:56.734Z,-0.01
2024-01-15T19:44:23.286Z,-0.02
2024-01-15T19:46:49.859Z,0.02
2024-01-15T19:49:16.957Z,0.04
2024-01-15T19:51:44.521Z,0.10
2024-01-15T19:54:11.565Z,0.10
2024-01-15T19:56:39.071Z,0.09
2024-01-15T19:59:09.128Z,0.12
2024-01-15T20:01:35.683Z,0.17
2024-01-15T20:04:02.710Z,0.18
2024-01-15T20:06:29.261Z,0.19
2024-01-15T20:08:55.755Z,0.17
2024-01-15T20:11:22.429Z,0.12
2024-01-15T20:13:49.463Z,0.12
2024-01-15T20:16:17.684Z,0.11
2024-01-15T20:18:44.599Z,0.12
2024-01-15T20:21:11.462Z,0.16
2024-01-15T20:23:46.638Z,0.13
2024-01-15T20:26:21.745Z,0.13
2024-01-15T20:28:48.500Z,0.08
2024-01-15T20:31:15.282Z,-0.01
2024-01-15T20:33:42.133Z,-0.07
2024-01-15T20:36:09.191Z,-0.16
2024-01-15T20:38:37.028Z,-0.13
2024-01-15T20:41:03.836Z,-0.12
2024-01-15T20:43:31.202Z,-0.08
2024-01-15T20:45:57.952Z,-0.01
2024-01-15T20:48:25.136Z,0.05
2024-01-15T20:50:52.163Z,0.05
2024-01-15T20:53:18.832Z,0.06
2024-01-15T20:55:45.408Z,0.11
2024-01-15T20:58:11.952Z,0.10
2024-01-15T21:00:40.155Z,0.12
2024-01-15T21:03:06.698Z,0.13
2024-01-15T21:05:33.295Z,0.16
2024-01-15T21:08:00.078Z,0.15
2024-01-15T21:10:26.564Z,0.16
2024-01-15T21:12:53.140Z,0.15
2024-01-15T21:15:19.697Z,0.22
2024-01-15T21:17:50.040Z,0.24
2024-01-15T21:20:17.801Z,0.20
2024-01-15T21:22:44.329Z,0.21
2024-01-15T21:25:11.233Z,0.25
2024-01-15T21:27:40.651Z,0.21
2024-01-15T21:30:07.947Z,0.24
2024-01-15T21:32:34.464Z,0.32
2024-01-15T21:35:01.350Z,0.36
2024-01-15T21:37:29.190Z,0.33
2024-01-15T21:39:55.822Z,0.33
2024-01-15T21:42:22.335Z,0.34
2024-01-15T21:44:48.944Z,0.25
2024-01-15T21:47:15.497Z,0.16
2024-01-15T21:49:42.702Z,-0.02
2024-01-15T21:52:09.973Z,-0.09
2024-01-15T21:54:36.463Z,-0.13
2024-01-15T21:57:04.739Z,-0.05
2024-01-15T21:59:34.110Z,-0.13
2024-01-15T22:02:05.240Z,-0.27
2024-01-15T22:04:31.878Z,-0.20
2024-01-15T22:06:58.534Z,-0.30
2024-01-15T22:09:25.048Z,-0.18
2024-01-15T22:11:51.666Z,-0.14
2024-01-15T22:14:18.145Z,-0.16
2024-01-15T22:16:44.715Z,-0.04
2024-01-15T22:19:12.274Z,-0.18
2024-01-15T22:21:43.717Z,-0.07
2024-01-15T22:24:10.718Z,-0.18
2024-01-15T22:26:37.995Z,-0.21
2024-01-15T22:29:04.771Z,-0.33
2024-01-15T22:31:31.736Z,-0.40
2024-01-15T22:33:58.942Z,-0.46
2024-01-15T22:36:25.513Z,-0.53
2024-01-15T22:38:52.224Z,-0.63
2024-01-15T22:41:18.910Z,-0.65
2024-01-15T22:43:46.684Z,-0.66
2024-01-15T22:46:13.744Z,-0.74
2024-01-15T22:48:40.687Z,-0.76
2024-01-15T22:51:08.030Z,-0.82
2024-01-15T22:53:34.664Z,-0.82
2024-01-15T22:56:04.083Z,-0.89
2024-01-15T22:58:30.624Z,-0.98
2024-01-15T23:00:59.703Z,-0.97
2024-01-15T23:03:26.629Z,-1.03
2024-01-15T23:05:53.296Z,-1.19
2024-01-15T23:08:19.913Z,-1.28
2024-01-15T23:10:46.415Z,-1.25
2024-01-15T23:13:13.036Z,-1.19
2024-01-15T23:15:39.580Z,-1.16
2024-01-15T23:18:07.014Z,-1.15
2024-01-15T23:20:33.720Z,-1.18
2024-01-15T23:23:00.366Z,-1.10
2024-01-15T23:25:26.977Z,-1.10
2024-01-15T23:27:53.470Z,-1.07
2024-01-15T23:30:20.927Z,-0.98
2024-01-15T23:32:47.906Z,-0.92
2024-01-15T23:35:15.417Z,-0.94
2024-01-15T23:37:41.966Z,-1.00
2024-01-15T23:40:09.158Z,-1.03
2024-01-15T23:42:35.744Z,-1.11
2024-01-15T23:45:02.264Z,-1.15
2024-01-15T23:47:28.878Z,-1.17
2024-01-15T23:49:55.887Z,-1.21
2024-01-15T23:52:22.395Z,-1.20
2024-01-15T23:54:48.914Z,-1.31
2024-01-15T23:57:15.607Z,-1.29
2024-01-15T23:59:42.403Z,-1.35
